sensor_id;sensor_type;location;lat;lon;timestamp;P1;durP1;ratioP1;P2;durP2;ratioP2
74965;SDS011;63522;47.928;21.042;2024-01-25T00:01:20;6.00;;;4.10;;
74965;SDS011;63522;47.928;21.042;2024-01-25T00:03:46;6.70;;;4.00;;
74965;SDS011;63522;47.928;21.042;2024-01-25T00:06:12;5.00;;;4.20;;
74965;SDS011;63522;47.928;21.042;2024-01-25T00:08:37;6.20;;;3.60;;
74965;SDS011;63522;47.928;21.042;2024-01-25T00:11:03;7.00;;;4.40;;
74965;SDS011;63522;47.928;21.042;2024-01-25T00:13:29;6.30;;;3.80;;
74965;SDS011;63522;47.928;21.042;2024-01-25T00:15:55;7.30;;;4.20;;
74965;SDS011;63522;47.928;21.042;2024-01-25T00:18:20;5.50;;;3.50;;
74965;SDS011;63522;47.928;21.042;2024-01-25T00:20:45;6.00;;;4.80;;
74965;SDS011;63522;47.928;21.042;2024-01-25T00:23:11;6.20;;;4.10;;
74965;SDS011;63522;47.928;21.042;2024-01-25T00:25:37;5.60;;;4.10;;
74965;SDS011;63522;47.928;21.042;2024-01-25T00:28:03;6.00;;;3.40;;
74965;SDS011;63522;47.928;21.042;2024-01-25T00:30:28;5.30;;;3.30;;
74965;SDS011;63522;47.928;21.042;2024-01-25T00:32:55;5.40;;;4.00;;
74965;SDS011;63522;47.928;21.042;2024-01-25T00:35:21;5.60;;;3.80;;
74965;SDS011;63522;47.928;21.042;2024-01-25T00:37:47;5.60;;;3.50;;
74965;SDS011;63522;47.928;21.042;2024-01-25T00:40:14;6.20;;;4.20;;
74965;SDS011;63522;47.928;21.042;2024-01-25T00:42:43;5.50;;;3.80;;
74965;SDS011;63522;47.928;21.042;2024-01-25T00:45:14;6.50;;;4.00;;
74965;SDS011;63522;47.928;21.042;2024-01-25T00:47:39;7.30;;;3.70;;
74965;SDS011;63522;47.928;21.042;2024-01-25T00:50:05;4.30;;;2.90;;
74965;SDS011;63522;47.928;21.042;2024-01-25T00:52:32;5.20;;;3.60;;
74965;SDS011;63522;47.928;21.042;2024-01-25T00:54:57;6.20;;;4.40;;
74965;SDS011;63522;47.928;21.042;2024-01-25T00:57:23;5.70;;;3.90;;
74965;SDS011;63522;47.928;21.042;2024-01-25T00:59:49;5.20;;;3.50;;
74965;SDS011;63522;47.928;21.042;2024-01-25T01:02:15;5.00;;;3.30;;
74965;SDS011;63522;47.928;21.042;2024-01-25T01:04:41;5.80;;;3.80;;
74965;SDS011;63522;47.928;21.042;2024-01-25T01:07:07;7.30;;;4.00;;
74965;SDS011;63522;47.928;21.042;2024-01-25T01:09:33;4.90;;;3.30;;
74965;SDS011;63522;47.928;21.042;2024-01-25T01:11:58;6.20;;;3.40;;
74965;SDS011;63522;47.928;21.042;2024-01-25T01:14:24;5.60;;;3.50;;
74965;SDS011;63522;47.928;21.042;2024-01-25T01:16:49;3.90;;;2.70;;
74965;SDS011;63522;47.928;21.042;2024-01-25T01:19:15;4.60;;;3.50;;
74965;SDS011;63522;47.928;21.042;2024-01-25T01:21:41;6.20;;;3.90;;
74965;SDS011;63522;47.928;21.042;2024-01-25T01:24:12;7.10;;;3.50;;
74965;SDS011;63522;47.928;21.042;2024-01-25T01:26:37;5.40;;;3.40;;
74965;SDS011;63522;47.928;21.042;2024-01-25T01:29:03;5.10;;;3.10;;
74965;SDS011;63522;47.928;21.042;2024-01-25T01:31:29;6.10;;;3.40;;
74965;SDS011;63522;47.928;21.042;2024-01-25T01:33:54;5.10;;;3.00;;
74965;SDS011;63522;47.928;21.042;2024-01-25T01:36:20;4.80;;;3.00;;
74965;SDS011;63522;47.928;21.042;2024-01-25T01:38:45;5.50;;;3.60;;
74965;SDS011;63522;47.928;21.042;2024-01-25T01:41:11;5.60;;;3.80;;
74965;SDS011;63522;47.928;21.042;2024-01-25T01:43:38;4.50;;;2.90;;
74965;SDS011;63522;47.928;21.042;2024-01-25T01:46:10;4.10;;;3.00;;
74965;SDS011;63522;47.928;21.042;2024-01-25T01:48:42;5.60;;;3.40;;
74965;SDS011;63522;47.928;21.042;2024-01-25T01:51:08;6.20;;;3.00;;
74965;SDS011;63522;47.928;21.042;2024-01-25T01:53:34;4.40;;;3.00;;
74965;SDS011;63522;47.928;21.042;2024-01-25T01:56:00;4.50;;;3.20;;
74965;SDS011;63522;47.928;21.042;2024-01-25T01:58:25;5.20;;;3.30;;
74965;SDS011;63522;47.928;21.042;2024-01-25T02:00:52;4.80;;;2.90;;
74965;SDS011;63522;47.928;21.042;2024-01-25T02:03:19;5.70;;;3.60;;
74965;SDS011;63522;47.928;21.042;2024-01-25T02:05:44;4.40;;;2.90;;
74965;SDS011;63522;47.928;21.042;2024-01-25T02:08:10;4.40;;;2.80;;
74965;SDS011;63522;47.928;21.042;2024-01-25T02:10:36;5.30;;;3.20;;
74965;SDS011;63522;47.928;21.042;2024-01-25T02:13:01;5.10;;;3.20;;
74965;SDS011;63522;47.928;21.042;2024-01-25T02:15:26;4.90;;;3.30;;
74965;SDS011;63522;47.928;21.042;2024-01-25T02:17:52;5.60;;;2.70;;
74965;SDS011;63522;47.928;21.042;2024-01-25T02:20:18;4.60;;;2.90;;
74965;SDS011;63522;47.928;21.042;2024-01-25T02:22:43;5.30;;;3.20;;
74965;SDS011;63522;47.928;21.042;2024-01-25T02:25:09;4.90;;;3.00;;
74965;SDS011;63522;47.928;21.042;2024-01-25T02:27:34;4.80;;;3.00;;
74965;SDS011;63522;47.928;21.042;2024-01-25T02:30:04;5.80;;;3.10;;
74965;SDS011;63522;47.928;21.042;2024-01-25T02:32:33;4.20;;;2.90;;
74965;SDS011;63522;47.928;21.042;2024-01-25T02:34:59;4.90;;;3.20;;
74965;SDS011;63522;47.928;21.042;2024-01-25T02:37:25;4.50;;;3.10;;
74965;SDS011;63522;47.928;21.042;2024-01-25T02:39:50;4.30;;;3.10;;
74965;SDS011;63522;47.928;21.042;2024-01-25T02:42:17;4.90;;;3.00;;
74965;SDS011;63522;47.928;21.042;2024-01-25T02:44:42;5.20;;;3.00;;
74965;SDS011;63522;47.928;21.042;2024-01-25T02:47:08;5.30;;;3.20;;
74965;SDS011;63522;47.928;21.042;2024-01-25T02:49:34;4.40;;;2.70;;
74965;SDS011;63522;47.928;21.042;2024-01-25T02:51:59;4.90;;;2.80;;
74965;SDS011;63522;47.928;21.042;2024-01-25T02:54:25;4.90;;;2.90;;
74965;SDS011;63522;47.928;21.042;2024-01-25T02:56:50;4.40;;;3.00;;
74965;SDS011;63522;47.928;21.042;2024-01-25T02:59:15;5.20;;;3.10;;
74965;SDS011;63522;47.928;21.042;2024-01-25T03:01:41;4.50;;;3.00;;
74965;SDS011;63522;47.928;21.042;2024-01-25T03:04:07;4.20;;;2.40;;
74965;SDS011;63522;47.928;21.042;2024-01-25T03:06:33;3.50;;;2.30;;
74965;SDS011;63522;47.928;21.042;2024-01-25T03:08:58;4.40;;;2.80;;
74965;SDS011;63522;47.928;21.042;2024-01-25T03:11:24;3.60;;;2.60;;
74965;SDS011;63522;47.928;21.042;2024-01-25T03:13:49;4.20;;;2.40;;
74965;SDS011;63522;47.928;21.042;2024-01-25T03:16:14;4.10;;;2.60;;
74965;SDS011;63522;47.928;21.042;2024-01-25T03:18:40;4.20;;;2.80;;
74965;SDS011;63522;47.928;21.042;2024-01-25T03:21:05;3.50;;;2.40;;
74965;SDS011;63522;47.928;21.042;2024-01-25T03:23:30;4.10;;;2.40;;
74965;SDS011;63522;47.928;21.042;2024-01-25T03:25:55;3.60;;;2.50;;
74965;SDS011;63522;47.928;21.042;2024-01-25T03:28:21;4.60;;;2.70;;
74965;SDS011;63522;47.928;21.042;2024-01-25T03:30:47;3.30;;;2.30;;
74965;SDS011;63522;47.928;21.042;2024-01-25T03:33:12;4.40;;;2.80;;
74965;SDS011;63522;47.928;21.042;2024-01-25T03:35:37;3.80;;;2.60;;
74965;SDS011;63522;47.928;21.042;2024-01-25T03:38:04;5.10;;;2.70;;
74965;SDS011;63522;47.928;21.042;2024-01-25T03:40:29;3.70;;;2.10;;
74965;SDS011;63522;47.928;21.042;2024-01-25T03:42:54;4.90;;;2.70;;
74965;SDS011;63522;47.928;21.042;2024-01-25T03:45:20;4.10;;;2.20;;
74965;SDS011;63522;47.928;21.042;2024-01-25T03:47:45;4.00;;;2.30;;
74965;SDS011;63522;47.928;21.042;2024-01-25T03:50:10;4.30;;;2.60;;
74965;SDS011;63522;47.928;21.042;2024-01-25T03:52:36;3.40;;;2.30;;
74965;SDS011;63522;47.928;21.042;2024-01-25T03:55:01;4.30;;;2.50;;
74965;SDS011;63522;47.928;21.042;2024-01-25T03:57:28;3.30;;;2.40;;
74965;SDS011;63522;47.928;21.042;2024-01-25T03:59:53;3.90;;;2.40;;
74965;SDS011;63522;47.928;21.042;2024-01-25T04:02:18;3.20;;;2.20;;
74965;SDS011;63522;47.928;21.042;2024-01-25T04:04:44;3.90;;;2.60;;
74965;SDS011;63522;47.928;21.042;2024-01-25T04:07:09;5.60;;;2.40;;
74965;SDS011;63522;47.928;21.042;2024-01-25T04:09:34;4.10;;;2.40;;
74965;SDS011;63522;47.928;21.042;2024-01-25T04:12:00;4.70;;;2.10;;
74965;SDS011;63522;47.928;21.042;2024-01-25T04:14:25;3.70;;;2.40;;
74965;SDS011;63522;47.928;21.042;2024-01-25T04:16:50;5.10;;;2.40;;
74965;SDS011;63522;47.928;21.042;2024-01-25T04:19:16;3.90;;;2.30;;
74965;SDS011;63522;47.928;21.042;2024-01-25T04:21:41;3.70;;;2.20;;
74965;SDS011;63522;47.928;21.042;2024-01-25T04:24:06;4.70;;;2.40;;
74965;SDS011;63522;47.928;21.042;2024-01-25T04:26:32;3.60;;;2.00;;
74965;SDS011;63522;47.928;21.042;2024-01-25T04:28:57;3.90;;;2.40;;
74965;SDS011;63522;47.928;21.042;2024-01-25T04:31:22;3.30;;;1.90;;
74965;SDS011;63522;47.928;21.042;2024-01-25T04:33:48;3.40;;;2.00;;
74965;SDS011;63522;47.928;21.042;2024-01-25T04:36:13;4.00;;;2.40;;
74965;SDS011;63522;47.928;21.042;2024-01-25T04:38:38;3.30;;;1.90;;
74965;SDS011;63522;47.928;21.042;2024-01-25T04:41:04;3.40;;;2.00;;
74965;SDS011;63522;47.928;21.042;2024-01-25T04:43:33;2.80;;;1.70;;
74965;SDS011;63522;47.928;21.042;2024-01-25T04:46:01;3.90;;;1.90;;
74965;SDS011;63522;47.928;21.042;2024-01-25T04:48:28;3.30;;;2.20;;
74965;SDS011;63522;47.928;21.042;2024-01-25T04:50:55;2.80;;;1.80;;
74965;SDS011;63522;47.928;21.042;2024-01-25T04:53:23;3.30;;;1.90;;
74965;SDS011;63522;47.928;21.042;2024-01-25T04:55:48;5.00;;;2.20;;
74965;SDS011;63522;47.928;21.042;2024-01-25T04:58:13;3.50;;;1.80;;
74965;SDS011;63522;47.928;21.042;2024-01-25T05:00:41;3.00;;;2.00;;
74965;SDS011;63522;47.928;21.042;2024-01-25T05:03:07;3.40;;;2.00;;
74965;SDS011;63522;47.928;21.042;2024-01-25T05:05:32;3.30;;;1.80;;
74965;SDS011;63522;47.928;21.042;2024-01-25T05:07:57;3.50;;;1.90;;
74965;SDS011;63522;47.928;21.042;2024-01-25T05:10:23;3.00;;;1.80;;
74965;SDS011;63522;47.928;21.042;2024-01-25T05:12:50;3.30;;;1.70;;
74965;SDS011;63522;47.928;21.042;2024-01-25T05:15:15;2.70;;;1.80;;
74965;SDS011;63522;47.928;21.042;2024-01-25T05:17:41;2.90;;;1.90;;
74965;SDS011;63522;47.928;21.042;2024-01-25T05:20:07;3.10;;;1.90;;
74965;SDS011;63522;47.928;21.042;2024-01-25T05:22:33;3.50;;;1.90;;
74965;SDS011;63522;47.928;21.042;2024-01-25T05:25:05;2.80;;;1.80;;
74965;SDS011;63522;47.928;21.042;2024-01-25T05:27:31;5.10;;;2.20;;
74965;SDS011;63522;47.928;21.042;2024-01-25T05:29:56;2.40;;;1.50;;
74965;SDS011;63522;47.928;21.042;2024-01-25T05:32:22;3.70;;;2.20;;
74965;SDS011;63522;47.928;21.042;2024-01-25T05:34:47;2.70;;;1.60;;
74965;SDS011;63522;47.928;21.042;2024-01-25T05:37:12;4.90;;;1.80;;
74965;SDS011;63522;47.928;21.042;2024-01-25T05:39:38;3.80;;;2.10;;
74965;SDS011;63522;47.928;21.042;2024-01-25T05:42:03;3.50;;;1.90;;
74965;SDS011;63522;47.928;21.042;2024-01-25T05:44:29;3.00;;;1.80;;
74965;SDS011;63522;47.928;21.042;2024-01-25T05:46:55;3.50;;;1.90;;
74965;SDS011;63522;47.928;21.042;2024-01-25T05:49:20;3.30;;;2.10;;
74965;SDS011;63522;47.928;21.042;2024-01-25T05:51:46;4.00;;;2.20;;
74965;SDS011;63522;47.928;21.042;2024-01-25T05:54:11;3.50;;;1.80;;
74965;SDS011;63522;47.928;21.042;2024-01-25T05:56:36;3.40;;;1.90;;
74965;SDS011;63522;47.928;21.042;2024-01-25T05:59:02;3.80;;;2.10;;
74965;SDS011;63522;47.928;21.042;2024-01-25T06:01:27;2.80;;;1.70;;
74965;SDS011;63522;47.928;21.042;2024-01-25T06:03:52;2.60;;;1.50;;
74965;SDS011;63522;47.928;21.042;2024-01-25T06:06:18;2.60;;;1.50;;
74965;SDS011;63522;47.928;21.042;2024-01-25T06:08:43;4.40;;;2.20;;
74965;SDS011;63522;47.928;21.042;2024-01-25T06:11:08;3.50;;;1.90;;
74965;SDS011;63522;47.928;21.042;2024-01-25T06:13:34;3.40;;;1.70;;
74965;SDS011;63522;47.928;21.042;2024-01-25T06:16:00;2.40;;;1.60;;
74965;SDS011;63522;47.928;21.042;2024-01-25T06:18:26;2.70;;;1.40;;
74965;SDS011;63522;47.928;21.042;2024-01-25T06:20:52;3.00;;;1.60;;
74965;SDS011;63522;47.928;21.042;2024-01-25T06:23:17;3.20;;;1.70;;
74965;SDS011;63522;47.928;21.042;2024-01-25T06:25:42;2.70;;;1.60;;
74965;SDS011;63522;47.928;21.042;2024-01-25T06:28:08;3.70;;;1.80;;
74965;SDS011;63522;47.928;21.042;2024-01-25T06:30:33;2.30;;;1.60;;
74965;SDS011;63522;47.928;21.042;2024-01-25T06:32:58;2.60;;;1.40;;
74965;SDS011;63522;47.928;21.042;2024-01-25T06:35:24;3.10;;;1.60;;
74965;SDS011;63522;47.928;21.042;2024-01-25T06:37:49;2.90;;;1.80;;
74965;SDS011;63522;47.928;21.042;2024-01-25T06:40:15;2.60;;;1.50;;
74965;SDS011;63522;47.928;21.042;2024-01-25T06:42:40;2.70;;;1.70;;
74965;SDS011;63522;47.928;21.042;2024-01-25T06:45:08;4.10;;;2.00;;
74965;SDS011;63522;47.928;21.042;2024-01-25T06:47:34;2.70;;;1.40;;
74965;SDS011;63522;47.928;21.042;2024-01-25T06:49:59;3.20;;;1.50;;
74965;SDS011;63522;47.928;21.042;2024-01-25T06:52:25;2.40;;;1.70;;
74965;SDS011;63522;47.928;21.042;2024-01-25T06:54:50;2.50;;;1.40;;
74965;SDS011;63522;47.928;21.042;2024-01-25T06:57:15;4.30;;;2.30;;
74965;SDS011;63522;47.928;21.042;2024-01-25T06:59:42;2.60;;;1.40;;
74965;SDS011;63522;47.928;21.042;2024-01-25T07:02:07;2.00;;;1.40;;
74965;SDS011;63522;47.928;21.042;2024-01-25T07:04:32;2.80;;;1.70;;
74965;SDS011;63522;47.928;21.042;2024-01-25T07:06:58;2.80;;;1.80;;
74965;SDS011;63522;47.928;21.042;2024-01-25T07:09:25;2.50;;;1.50;;
74965;SDS011;63522;47.928;21.042;2024-01-25T07:11:50;2.20;;;1.40;;
74965;SDS011;63522;47.928;21.042;2024-01-25T07:14:16;3.40;;;1.80;;
74965;SDS011;63522;47.928;21.042;2024-01-25T07:16:41;3.60;;;1.60;;
74965;SDS011;63522;47.928;21.042;2024-01-25T07:19:06;2.70;;;1.70;;
74965;SDS011;63522;47.928;21.042;2024-01-25T07:21:32;2.80;;;1.70;;
74965;SDS011;63522;47.928;21.042;2024-01-25T07:23:59;3.50;;;1.70;;
74965;SDS011;63522;47.928;21.042;2024-01-25T07:26:29;2.80;;;1.30;;
74965;SDS011;63522;47.928;21.042;2024-01-25T07:28:55;2.00;;;1.40;;
74965;SDS011;63522;47.928;21.042;2024-01-25T07:31:24;2.80;;;1.40;;
74965;SDS011;63522;47.928;21.042;2024-01-25T07:33:50;2.80;;;1.50;;
74965;SDS011;63522;47.928;21.042;2024-01-25T07:36:17;2.50;;;1.30;;
74965;SDS011;63522;47.928;21.042;2024-01-25T07:38:43;2.20;;;1.40;;
74965;SDS011;63522;47.928;21.042;2024-01-25T07:41:09;2.20;;;1.50;;
74965;SDS011;63522;47.928;21.042;2024-01-25T07:43:34;2.60;;;1.50;;
74965;SDS011;63522;47.928;21.042;2024-01-25T07:46:00;2.40;;;1.40;;
74965;SDS011;63522;47.928;21.042;2024-01-25T07:48:25;3.80;;;1.50;;
74965;SDS011;63522;47.928;21.042;2024-01-25T07:50:50;2.80;;;1.30;;
74965;SDS011;63522;47.928;21.042;2024-01-25T07:53:16;2.80;;;1.30;;
74965;SDS011;63522;47.928;21.042;2024-01-25T07:55:41;2.80;;;1.50;;
74965;SDS011;63522;47.928;21.042;2024-01-25T07:58:07;2.10;;;1.20;;
74965;SDS011;63522;47.928;21.042;2024-01-25T08:00:32;3.10;;;1.60;;
74965;SDS011;63522;47.928;21.042;2024-01-25T08:02:58;2.70;;;1.30;;
74965;SDS011;63522;47.928;21.042;2024-01-25T08:05:23;3.00;;;1.50;;
74965;SDS011;63522;47.928;21.042;2024-01-25T08:07:48;2.20;;;1.10;;
74965;SDS011;63522;47.928;21.042;2024-01-25T08:10:14;3.50;;;1.30;;
74965;SDS011;63522;47.928;21.042;2024-01-25T08:12:41;3.30;;;1.50;;
74965;SDS011;63522;47.928;21.042;2024-01-25T08:17:34;3.70;;;1.20;;
74965;SDS011;63522;47.928;21.042;2024-01-25T08:20:01;1.90;;;1.20;;
74965;SDS011;63522;47.928;21.042;2024-01-25T08:22:27;2.60;;;1.60;;
74965;SDS011;63522;47.928;21.042;2024-01-25T08:24:53;2.00;;;1.20;;
74965;SDS011;63522;47.928;21.042;2024-01-25T08:27:18;2.30;;;1.20;;
74965;SDS011;63522;47.928;21.042;2024-01-25T08:29:44;1.70;;;1.00;;
74965;SDS011;63522;47.928;21.042;2024-01-25T08:32:10;2.10;;;1.20;;
74965;SDS011;63522;47.928;21.042;2024-01-25T08:34:35;2.90;;;1.40;;
74965;SDS011;63522;47.928;21.042;2024-01-25T08:37:00;2.60;;;1.30;;
74965;SDS011;63522;47.928;21.042;2024-01-25T08:39:26;2.80;;;1.30;;
74965;SDS011;63522;47.928;21.042;2024-01-25T08:41:51;2.60;;;1.20;;
74965;SDS011;63522;47.928;21.042;2024-01-25T08:44:16;3.20;;;1.40;;
74965;SDS011;63522;47.928;21.042;2024-01-25T08:46:42;1.90;;;1.30;;
74965;SDS011;63522;47.928;21.042;2024-01-25T08:49:08;3.20;;;1.50;;
74965;SDS011;63522;47.928;21.042;2024-01-25T08:51:35;2.60;;;1.20;;
74965;SDS011;63522;47.928;21.042;2024-01-25T08:54:01;2.20;;;1.20;;
74965;SDS011;63522;47.928;21.042;2024-01-25T08:56:28;2.40;;;1.20;;
74965;SDS011;63522;47.928;21.042;2024-01-25T08:58:54;3.00;;;1.40;;
74965;SDS011;63522;47.928;21.042;2024-01-25T09:01:19;2.10;;;1.20;;
74965;SDS011;63522;47.928;21.042;2024-01-25T09:03:45;2.80;;;1.20;;
74965;SDS011;63522;47.928;21.042;2024-01-25T09:06:10;2.50;;;1.20;;
74965;SDS011;63522;47.928;21.042;2024-01-25T09:08:36;3.10;;;1.30;;
74965;SDS011;63522;47.928;21.042;2024-01-25T09:11:01;2.50;;;1.30;;
74965;SDS011;63522;47.928;21.042;2024-01-25T09:13:27;3.00;;;1.50;;
74965;SDS011;63522;47.928;21.042;2024-01-25T09:15:52;2.70;;;1.40;;
74965;SDS011;63522;47.928;21.042;2024-01-25T09:18:18;2.50;;;1.30;;
74965;SDS011;63522;47.928;21.042;2024-01-25T09:20:44;2.30;;;1.20;;
74965;SDS011;63522;47.928;21.042;2024-01-25T09:23:13;2.40;;;1.20;;
74965;SDS011;63522;47.928;21.042;2024-01-25T09:25:41;2.60;;;1.40;;
74965;SDS011;63522;47.928;21.042;2024-01-25T09:28:07;1.70;;;1.10;;
74965;SDS011;63522;47.928;21.042;2024-01-25T09:30:33;2.90;;;1.10;;
74965;SDS011;63522;47.928;21.042;2024-01-25T09:32:58;2.20;;;1.10;;
74965;SDS011;63522;47.928;21.042;2024-01-25T09:35:23;2.40;;;1.10;;
74965;SDS011;63522;47.928;21.042;2024-01-25T09:37:49;3.70;;;1.50;;
74965;SDS011;63522;47.928;21.042;2024-01-25T09:40:17;2.60;;;1.10;;
74965;SDS011;63522;47.928;21.042;2024-01-25T09:42:46;3.40;;;1.50;;
74965;SDS011;63522;47.928;21.042;2024-01-25T09:45:15;4.30;;;1.50;;
74965;SDS011;63522;47.928;21.042;2024-01-25T09:47:42;2.40;;;1.00;;
74965;SDS011;63522;47.928;21.042;2024-01-25T09:50:08;2.80;;;1.10;;
74965;SDS011;63522;47.928;21.042;2024-01-25T09:52:34;2.10;;;1.00;;
74965;SDS011;63522;47.928;21.042;2024-01-25T09:54:59;3.50;;;0.90;;
74965;SDS011;63522;47.928;21.042;2024-01-25T09:57:27;2.40;;;1.10;;
74965;SDS011;63522;47.928;21.042;2024-01-25T10:02:20;2.20;;;1.10;;
74965;SDS011;63522;47.928;21.042;2024-01-25T10:04:52;3.60;;;1.20;;
74965;SDS011;63522;47.928;21.042;2024-01-25T10:10:06;2.00;;;1.10;;
74965;SDS011;63522;47.928;21.042;2024-01-25T10:12:32;2.30;;;1.00;;
74965;SDS011;63522;47.928;21.042;2024-01-25T10:14:58;2.30;;;1.00;;
74965;SDS011;63522;47.928;21.042;2024-01-25T10:17:23;2.10;;;1.10;;
74965;SDS011;63522;47.928;21.042;2024-01-25T10:19:49;2.80;;;1.50;;
74965;SDS011;63522;47.928;21.042;2024-01-25T10:22:14;2.40;;;1.20;;
74965;SDS011;63522;47.928;21.042;2024-01-25T10:24:40;3.80;;;1.30;;
74965;SDS011;63522;47.928;21.042;2024-01-25T10:27:07;2.80;;;1.20;;
74965;SDS011;63522;47.928;21.042;2024-01-25T10:29:36;2.10;;;1.00;;
74965;SDS011;63522;47.928;21.042;2024-01-25T10:32:05;3.30;;;1.60;;
74965;SDS011;63522;47.928;21.042;2024-01-25T10:34:32;2.60;;;1.10;;
74965;SDS011;63522;47.928;21.042;2024-01-25T10:39:26;2.40;;;1.00;;
74965;SDS011;63522;47.928;21.042;2024-01-25T10:41:54;1.90;;;1.00;;
74965;SDS011;63522;47.928;21.042;2024-01-25T10:44:20;2.00;;;1.30;;
74965;SDS011;63522;47.928;21.042;2024-01-25T10:46:49;2.40;;;1.00;;
74965;SDS011;63522;47.928;21.042;2024-01-25T10:49:16;1.70;;;1.10;;
74965;SDS011;63522;47.928;21.042;2024-01-25T10:51:43;2.60;;;1.20;;
74965;SDS011;63522;47.928;21.042;2024-01-25T10:54:09;2.90;;;1.10;;
74965;SDS011;63522;47.928;21.042;2024-01-25T10:56:36;1.90;;;0.90;;
74965;SDS011;63522;47.928;21.042;2024-01-25T10:59:02;2.60;;;1.20;;
74965;SDS011;63522;47.928;21.042;2024-01-25T11:01:28;3.40;;;1.20;;
74965;SDS011;63522;47.928;21.042;2024-01-25T11:03:54;1.80;;;0.90;;
74965;SDS011;63522;47.928;21.042;2024-01-25T11:06:20;2.30;;;1.10;;
74965;SDS011;63522;47.928;21.042;2024-01-25T11:13:39;1.10;;;0.70;;
74965;SDS011;63522;47.928;21.042;2024-01-25T11:16:12;3.10;;;1.30;;
74965;SDS011;63522;47.928;21.042;2024-01-25T11:18:49;2.00;;;0.90;;
74965;SDS011;63522;47.928;21.042;2024-01-25T11:21:48;1.60;;;0.90;;
74965;SDS011;63522;47.928;21.042;2024-01-25T11:24:14;2.30;;;1.00;;
74965;SDS011;63522;47.928;21.042;2024-01-25T11:26:45;2.40;;;1.10;;
74965;SDS011;63522;47.928;21.042;2024-01-25T11:29:17;3.00;;;1.00;;
74965;SDS011;63522;47.928;21.042;2024-01-25T11:31:45;1.50;;;0.80;;
74965;SDS011;63522;47.928;21.042;2024-01-25T11:34:12;2.70;;;1.30;;
74965;SDS011;63522;47.928;21.042;2024-01-25T11:36:40;1.80;;;0.70;;
74965;SDS011;63522;47.928;21.042;2024-01-25T11:39:06;2.10;;;1.00;;
74965;SDS011;63522;47.928;21.042;2024-01-25T11:41:34;1.80;;;1.00;;
74965;SDS011;63522;47.928;21.042;2024-01-25T11:44:01;2.20;;;0.90;;
74965;SDS011;63522;47.928;21.042;2024-01-25T11:46:27;2.80;;;1.00;;
74965;SDS011;63522;47.928;21.042;2024-01-25T11:48:53;2.20;;;1.00;;
74965;SDS011;63522;47.928;21.042;2024-01-25T11:51:19;2.90;;;1.20;;
74965;SDS011;63522;47.928;21.042;2024-01-25T11:53:44;2.00;;;1.00;;
74965;SDS011;63522;47.928;21.042;2024-01-25T11:56:10;2.40;;;1.10;;
74965;SDS011;63522;47.928;21.042;2024-01-25T11:58:41;2.30;;;1.00;;
74965;SDS011;63522;47.928;21.042;2024-01-25T12:01:08;1.60;;;1.10;;
74965;SDS011;63522;47.928;21.042;2024-01-25T12:03:35;2.70;;;0.90;;
74965;SDS011;63522;47.928;21.042;2024-01-25T12:06:03;2.60;;;1.20;;
74965;SDS011;63522;47.928;21.042;2024-01-25T12:08:31;3.20;;;0.90;;
74965;SDS011;63522;47.928;21.042;2024-01-25T12:11:04;2.10;;;0.90;;
74965;SDS011;63522;47.928;21.042;2024-01-25T12:13:41;2.30;;;0.90;;
74965;SDS011;63522;47.928;21.042;2024-01-25T12:16:11;1.20;;;0.70;;
74965;SDS011;63522;47.928;21.042;2024-01-25T12:18:37;2.30;;;1.50;;
74965;SDS011;63522;47.928;21.042;2024-01-25T12:21:05;2.30;;;0.90;;
74965;SDS011;63522;47.928;21.042;2024-01-25T12:23:35;2.60;;;0.90;;
74965;SDS011;63522;47.928;21.042;2024-01-25T12:26:05;2.30;;;1.20;;
74965;SDS011;63522;47.928;21.042;2024-01-25T12:28:31;1.50;;;0.80;;
74965;SDS011;63522;47.928;21.042;2024-01-25T12:31:01;2.00;;;0.90;;
74965;SDS011;63522;47.928;21.042;2024-01-25T12:33:28;1.40;;;0.90;;
74965;SDS011;63522;47.928;21.042;2024-01-25T12:35:54;1.50;;;0.70;;
74965;SDS011;63522;47.928;21.042;2024-01-25T12:38:20;2.30;;;1.20;;
74965;SDS011;63522;47.928;21.042;2024-01-25T12:40:49;1.40;;;0.80;;
74965;SDS011;63522;47.928;21.042;2024-01-25T12:43:15;2.30;;;0.70;;
74965;SDS011;63522;47.928;21.042;2024-01-25T12:45:41;1.20;;;0.70;;
74965;SDS011;63522;47.928;21.042;2024-01-25T12:48:07;3.70;;;1.00;;
74965;SDS011;63522;47.928;21.042;2024-01-25T12:50:37;2.40;;;1.00;;
74965;SDS011;63522;47.928;21.042;2024-01-25T12:53:03;2.10;;;1.00;;
74965;SDS011;63522;47.928;21.042;2024-01-25T12:55:29;1.50;;;0.70;;
74965;SDS011;63522;47.928;21.042;2024-01-25T12:57:56;2.10;;;1.00;;
74965;SDS011;63522;47.928;21.042;2024-01-25T13:00:22;1.80;;;0.80;;
74965;SDS011;63522;47.928;21.042;2024-01-25T13:02:48;1.40;;;0.70;;
74965;SDS011;63522;47.928;21.042;2024-01-25T13:05:14;2.00;;;0.70;;
74965;SDS011;63522;47.928;21.042;2024-01-25T13:07:40;2.10;;;1.20;;
74965;SDS011;63522;47.928;21.042;2024-01-25T13:10:05;2.20;;;0.90;;
74965;SDS011;63522;47.928;21.042;2024-01-25T13:12:32;2.40;;;0.80;;
74965;SDS011;63522;47.928;21.042;2024-01-25T13:14:57;2.10;;;1.00;;
74965;SDS011;63522;47.928;21.042;2024-01-25T13:17:23;2.50;;;1.00;;
74965;SDS011;63522;47.928;21.042;2024-01-25T13:19:50;1.70;;;0.90;;
74965;SDS011;63522;47.928;21.042;2024-01-25T13:22:16;2.00;;;0.80;;
74965;SDS011;63522;47.928;21.042;2024-01-25T13:24:45;1.30;;;0.80;;
74965;SDS011;63522;47.928;21.042;2024-01-25T13:27:11;2.30;;;0.90;;
74965;SDS011;63522;47.928;21.042;2024-01-25T13:29:36;2.60;;;1.10;;
74965;SDS011;63522;47.928;21.042;2024-01-25T13:32:02;1.60;;;0.60;;
74965;SDS011;63522;47.928;21.042;2024-01-25T13:34:28;1.60;;;0.90;;
74965;SDS011;63522;47.928;21.042;2024-01-25T13:36:53;2.20;;;0.80;;
74965;SDS011;63522;47.928;21.042;2024-01-25T13:39:18;1.70;;;0.70;;
74965;SDS011;63522;47.928;21.042;2024-01-25T13:41:44;2.40;;;0.90;;
74965;SDS011;63522;47.928;21.042;2024-01-25T13:44:13;2.40;;;0.80;;
74965;SDS011;63522;47.928;21.042;2024-01-25T13:46:39;3.40;;;1.40;;
74965;SDS011;63522;47.928;21.042;2024-01-25T13:49:04;2.50;;;0.90;;
74965;SDS011;63522;47.928;21.042;2024-01-25T13:51:29;1.50;;;0.70;;
74965;SDS011;63522;47.928;21.042;2024-01-25T13:53:55;1.60;;;0.70;;
74965;SDS011;63522;47.928;21.042;2024-01-25T13:56:20;2.60;;;1.00;;
74965;SDS011;63522;47.928;21.042;2024-01-25T13:58:46;1.40;;;0.70;;
74965;SDS011;63522;47.928;21.042;2024-01-25T14:01:11;1.40;;;0.70;;
74965;SDS011;63522;47.928;21.042;2024-01-25T14:03:36;1.30;;;0.80;;
74965;SDS011;63522;47.928;21.042;2024-01-25T14:06:02;2.20;;;0.80;;
74965;SDS011;63522;47.928;21.042;2024-01-25T14:08:30;2.30;;;0.80;;
74965;SDS011;63522;47.928;21.042;2024-01-25T14:10:57;1.50;;;0.70;;
74965;SDS011;63522;47.928;21.042;2024-01-25T14:13:22;1.50;;;0.70;;
74965;SDS011;63522;47.928;21.042;2024-01-25T14:15:47;1.70;;;0.90;;
74965;SDS011;63522;47.928;21.042;2024-01-25T14:18:13;1.80;;;0.70;;
74965;SDS011;63522;47.928;21.042;2024-01-25T14:20:39;1.70;;;0.80;;
74965;SDS011;63522;47.928;21.042;2024-01-25T14:23:04;1.30;;;0.40;;
74965;SDS011;63522;47.928;21.042;2024-01-25T14:25:29;2.00;;;0.90;;
74965;SDS011;63522;47.928;21.042;2024-01-25T14:27:55;1.70;;;0.60;;
74965;SDS011;63522;47.928;21.042;2024-01-25T14:30:21;1.80;;;1.00;;
74965;SDS011;63522;47.928;21.042;2024-01-25T14:32:46;1.50;;;0.70;;
74965;SDS011;63522;47.928;21.042;2024-01-25T14:35:12;1.50;;;0.80;;
74965;SDS011;63522;47.928;21.042;2024-01-25T14:37:37;1.80;;;0.90;;
74965;SDS011;63522;47.928;21.042;2024-01-25T14:40:03;1.50;;;0.60;;
74965;SDS011;63522;47.928;21.042;2024-01-25T14:42:29;2.30;;;0.90;;